Time;durP1;ratioP1;P1;durP2;ratioP2;P2;SDS_P1;SDS_P2;PMS_P1;PMS_P2;Temp;Humidity;BMP_temperature;BMP_pressure;BME280_temperature;BME280_humidity;BME280_pressure;Samples;Min_cycle;Max_cycle;Signal;HPM_P1;HPM_P2
2023/09/17 00:00:32;;;;;;;1.60;1.00;;;11.50;99.90;;;;;;5123907;27;20449;-73
2023/09/17 00:02:58;;;;;;;2.45;1.40;;;11.50;99.90;;;;;;5123265;27;20043;-73
2023/09/17 00:05:24;;;;;;;2.47;1.00;;;11.40;99.90;;;;;;5121487;27;20044;-73
2023/09/17 00:07:50;;;;;;;0.63;0.63;;;11.40;99.90;;;;;;5120775;27;20481;-73
2023/09/17 00:10:15;;;;;;;0.70;0.52;;;11.50;99.90;;;;;;5122036;27;20120;-72
2023/09/17 00:12:41;;;;;;;2.38;0.88;;;11.40;99.90;;;;;;5114146;27;20039;-73
2023/09/17 00:15:07;;;;;;;1.30;0.68;;;11.40;99.90;;;;;;5122074;27;20054;-73
2023/09/17 00:17:33;;;;;;;0.40;0.30;;;11.30;99.90;;;;;;5121266;27;20396;-73
2023/09/17 00:19:59;;;;;;;0.08;0.08;;;11.30;99.90;;;;;;5121528;27;20040;-72
2023/09/17 00:22:24;;;;;;;0.10;0.10;;;11.20;99.90;;;;;;5123300;27;20071;-73
2023/09/17 00:24:50;;;;;;;0.32;0.30;;;11.10;99.90;;;;;;5123784;27;20031;-73
2023/09/17 00:27:16;;;;;;;0.75;0.55;;;11.10;99.90;;;;;;5124352;27;20076;-73
2023/09/17 00:29:41;;;;;;;1.10;0.47;;;11.30;99.90;;;;;;5120848;27;20129;-73
2023/09/17 00:32:07;;;;;;;0.65;0.40;;;11.20;99.90;;;;;;5121224;27;20078;-73
2023/09/17 00:34:33;;;;;;;1.52;1.15;;;11.30;99.90;;;;;;5121653;27;20218;-73
2023/09/17 00:37:00;;;;;;;0.40;0.40;;;11.30;99.90;;;;;;5122257;27;20082;-73
2023/09/17 00:39:26;;;;;;;0.30;0.30;;;11.30;99.90;;;;;;5124275;27;20078;-73
2023/09/17 00:41:52;;;;;;;1.25;1.15;;;11.70;99.90;;;;;;5119428;27;20047;-72
2023/09/17 00:44:18;;;;;;;2.83;1.42;;;11.50;99.90;;;;;;5121488;28;20036;-73
2023/09/17 00:46:43;;;;;;;1.20;1.08;;;11.50;99.90;;;;;;5121152;27;20089;-72
2023/09/17 00:49:13;;;;;;;3.15;1.10;;;11.50;99.90;;;;;;5123816;27;20039;-73
2023/09/17 00:51:40;;;;;;;0.95;0.93;;;11.50;99.90;;;;;;5124516;27;20054;-73
2023/09/17 00:54:07;;;;;;;1.45;1.35;;;11.50;99.90;;;;;;5121377;27;20079;-73
2023/09/17 00:56:33;;;;;;;2.95;0.95;;;11.60;99.90;;;;;;5120030;27;20537;-73
2023/09/17 00:58:59;;;;;;;1.70;1.30;;;11.60;99.90;;;;;;5122842;28;20044;-73
2023/09/17 01:01:25;;;;;;;2.10;1.42;;;11.60;99.90;;;;;;5124257;28;20408;-73
2023/09/17 01:03:51;;;;;;;4.88;2.30;;;11.60;99.90;;;;;;5124198;28;20031;-73
2023/09/17 01:06:17;;;;;;;1.95;1.35;;;11.60;99.90;;;;;;5117162;27;20034;-73
2023/09/17 01:08:43;;;;;;;1.13;0.98;;;11.60;99.90;;;;;;5122365;28;20035;-73
2023/09/17 01:11:10;;;;;;;0.30;0.30;;;11.50;99.90;;;;;;5114046;27;20043;-73
2023/09/17 01:13:40;;;;;;;1.17;0.95;;;11.50;99.90;;;;;;5120310;28;20491;-73
2023/09/17 01:16:07;;;;;;;0.95;0.80;;;11.50;99.90;;;;;;5116552;27;20043;-73
2023/09/17 01:18:34;;;;;;;5.57;1.33;;;11.50;99.90;;;;;;5121075;28;20494;-73
2023/09/17 01:21:05;;;;;;;0.10;0.10;;;11.50;99.90;;;;;;5120147;28;20059;-73
2023/09/17 01:23:42;;;;;;;1.77;0.93;;;11.50;99.90;;;;;;5123216;28;20086;-73
2023/09/17 01:26:12;;;;;;;;;;;11.40;99.90;;;;;;5115151;27;20058;-72
2023/09/17 01:28:40;;;;;;;0.88;0.38;;;11.30;99.90;;;;;;5119035;27;19934;-73
2023/09/17 01:31:05;;;;;;;0.98;0.65;;;11.30;99.90;;;;;;5120722;28;20097;-73
2023/09/17 01:33:33;;;;;;;1.55;0.70;;;11.40;99.90;;;;;;5122109;28;20510;-73
2023/09/17 01:36:23;;;;;;;0.57;0.43;;;11.30;99.90;;;;;;5128308;27;20490;-73
2023/09/17 01:38:54;;;;;;;1.30;0.82;;;11.30;99.90;;;;;;5124086;27;20032;-73
2023/09/17 01:41:21;;;;;;;0.30;0.30;;;11.40;99.90;;;;;;5123762;27;20545;-73
2023/09/17 01:43:47;;;;;;;1.00;0.90;;;11.30;99.90;;;;;;5124298;27;20153;-73
2023/09/17 01:46:16;;;;;;;0.20;0.20;;;11.40;99.90;;;;;;5122124;27;20039;-73
2023/09/17 01:48:42;;;;;;;0.55;0.30;;;11.40;99.90;;;;;;5126708;27;20039;-73
2023/09/17 01:51:11;;;;;;;0.00;0.00;;;11.30;99.90;;;;;;5126872;27;20051;-73
2023/09/17 01:53:37;;;;;;;0.55;0.43;;;11.10;99.90;;;;;;5127817;27;20038;-73
2023/09/17 01:56:04;;;;;;;0.95;0.65;;;11.10;99.90;;;;;;5122543;27;20130;-73
2023/09/17 01:58:30;;;;;;;1.65;1.27;;;11.20;99.90;;;;;;5123192;27;20434;-73
2023/09/17 02:00:56;;;;;;;0.55;0.52;;;11.20;99.90;;;;;;5124307;27;20051;-73
2023/09/17 02:03:22;;;;;;;1.70;0.70;;;11.40;99.90;;;;;;5120911;27;20195;-73
2023/09/17 02:05:48;;;;;;;3.00;2.00;;;11.30;99.90;;;;;;5118429;27;20085;-72
2023/09/17 02:08:14;;;;;;;0.80;0.65;;;11.40;99.90;;;;;;5124696;27;20036;-73
2023/09/17 02:10:40;;;;;;;0.77;0.52;;;11.30;99.90;;;;;;5121622;27;20039;-72
2023/09/17 02:13:06;;;;;;;0.30;0.13;;;12.60;99.90;;;;;;5123250;27;20092;-73
2023/09/17 02:15:32;;;;;;;0.90;0.47;;;11.30;99.90;;;;;;5120836;27;20039;-73
2023/09/17 02:17:58;;;;;;;2.83;0.43;;;11.30;99.90;;;;;;5126037;27;20100;-73
2023/09/17 02:20:23;;;;;;;0.10;0.08;;;11.30;99.90;;;;;;5125719;27;20425;-73
2023/09/17 02:22:50;;;;;;;0.50;0.47;;;11.40;99.90;;;;;;5122389;27;20039;-73
2023/09/17 02:25:16;;;;;;;0.38;0.28;;;11.40;99.90;;;;;;5125770;27;20040;-73
2023/09/17 02:27:42;;;;;;;0.17;0.17;;;11.50;99.90;;;;;;5123103;27;20089;-73
2023/09/17 02:30:08;;;;;;;0.00;0.00;;;11.50;99.90;;;;;;5123822;27;20481;-73
2023/09/17 02:32:34;;;;;;;0.75;0.17;;;11.60;99.90;;;;;;5122242;27;20085;-73
2023/09/17 02:35:00;;;;;;;0.45;0.40;;;11.70;99.90;;;;;;5122897;27;20040;-73
2023/09/17 02:37:26;;;;;;;0.00;0.00;;;11.80;99.90;;;;;;5122346;27;20039;-73
2023/09/17 02:39:52;;;;;;;0.95;0.35;;;11.80;99.90;;;;;;5125802;27;20560;-73
2023/09/17 02:42:17;;;;;;;0.08;0.08;;;12.00;99.90;;;;;;5126676;27;20172;-73
2023/09/17 02:44:43;;;;;;;1.35;1.13;;;12.10;99.90;;;;;;5125408;27;20043;-73
2023/09/17 02:47:09;;;;;;;0.38;0.35;;;12.10;99.90;;;;;;5122905;27;20838;-72
2023/09/17 02:49:35;;;;;;;0.50;0.30;;;12.30;99.90;;;;;;5123200;27;20039;-73
2023/09/17 02:52:01;;;;;;;2.95;1.45;;;12.40;99.90;;;;;;5125714;27;20048;-73
2023/09/17 02:54:27;;;;;;;1.92;1.25;;;12.50;99.90;;;;;;5125129;27;20040;-73
2023/09/17 02:56:53;;;;;;;4.82;0.70;;;12.60;99.90;;;;;;5118217;27;20089;-73
2023/09/17 02:59:19;;;;;;;4.40;1.67;;;12.70;99.90;;;;;;5101450;27;20431;-72
2023/09/17 03:01:45;;;;;;;0.35;0.35;;;12.70;99.90;;;;;;5131182;27;20122;-73
2023/09/17 03:04:10;;;;;;;1.70;1.58;;;12.80;99.90;;;;;;5115096;27;20127;-73
2023/09/17 03:06:37;;;;;;;0.85;0.47;;;12.90;99.90;;;;;;5126399;27;20031;-73
2023/09/17 03:09:07;;;;;;;0.88;0.70;;;12.90;99.90;;;;;;5125423;27;20531;-73
2023/09/17 03:11:33;;;;;;;0.15;0.10;;;13.00;99.90;;;;;;5114365;27;20044;-73
2023/09/17 03:13:59;;;;;;;0.15;0.15;;;13.00;99.90;;;;;;5117604;27;20134;-73
2023/09/17 03:16:24;;;;;;;0.57;0.57;;;13.00;99.90;;;;;;5124642;27;20046;-73
2023/09/17 03:18:50;;;;;;;0.55;0.38;;;13.10;99.90;;;;;;5118950;27;20477;-72
2023/09/17 03:21:16;;;;;;;3.47;1.25;;;13.20;99.90;;;;;;5122792;27;20488;-72
2023/09/17 03:23:41;;;;;;;0.77;0.55;;;13.20;99.90;;;;;;5126051;27;20073;-73
2023/09/17 03:26:09;;;;;;;1.30;1.10;;;13.30;99.90;;;;;;5122766;27;20568;-73
2023/09/17 03:28:35;;;;;;;0.35;0.35;;;13.30;99.90;;;;;;5124430;27;20114;-73
2023/09/17 03:31:01;;;;;;;5.70;1.80;;;13.40;99.90;;;;;;5125931;27;20444;-73
2023/09/17 03:33:27;;;;;;;1.15;1.05;;;13.40;99.90;;;;;;5122752;27;20055;-73
2023/09/17 03:35:54;;;;;;;2.25;1.40;;;13.40;99.90;;;;;;5122678;27;20043;-73
2023/09/17 03:38:20;;;;;;;3.20;2.03;;;13.50;99.90;;;;;;5122211;27;20499;-73
2023/09/17 03:40:46;;;;;;;0.90;0.80;;;13.50;99.90;;;;;;5123567;27;20054;-72
2023/09/17 03:43:12;;;;;;;2.20;1.90;;;13.50;99.90;;;;;;5122839;27;20035;-73
2023/09/17 03:45:37;;;;;;;1.17;1.08;;;13.60;99.90;;;;;;5108270;27;20058;-73
2023/09/17 03:48:04;;;;;;;2.22;1.48;;;13.60;99.90;;;;;;5098261;27;20032;-72
2023/09/17 03:50:30;;;;;;;0.17;0.13;;;13.60;99.90;;;;;;5098268;27;20043;-73
2023/09/17 03:53:01;;;;;;;0.65;0.45;;;13.60;99.90;;;;;;5094590;27;20067;-73
2023/09/17 03:55:27;;;;;;;1.48;0.88;;;13.70;99.90;;;;;;5101828;27;20109;-73
2023/09/17 03:57:55;;;;;;;0.43;0.35;;;13.70;99.90;;;;;;5100197;27;20572;-72
2023/09/17 04:00:23;;;;;;;0.75;0.75;;;13.80;99.90;;;;;;5098047;27;20062;-72
2023/09/17 04:02:49;;;;;;;0.63;0.47;;;13.80;99.90;;;;;;5093246;27;20040;-73
2023/09/17 04:05:16;;;;;;;1.10;0.65;;;13.80;99.90;;;;;;5104842;27;20047;-73
2023/09/17 04:07:44;;;;;;;1.90;0.52;;;13.90;99.90;;;;;;5101223;27;20042;-73
2023/09/17 04:10:14;;;;;;;1.23;1.13;;;14.00;99.90;;;;;;5099277;27;20089;-73
2023/09/17 04:12:41;;;;;;;1.38;1.23;;;13.90;99.90;;;;;;5097780;27;20517;-72
2023/09/17 04:15:20;;;;;;;4.40;1.10;;;14.00;99.90;;;;;;5084987;27;20044;-72
2023/09/17 04:17:47;;;;;;;1.85;1.50;;;14.00;99.90;;;;;;5095439;27;20074;-72
2023/09/17 04:20:14;;;;;;;1.10;0.98;;;14.00;99.90;;;;;;5100954;27;20050;-72
2023/09/17 04:22:43;;;;;;;0.98;0.82;;;14.10;99.90;;;;;;5097681;27;20036;-73
2023/09/17 04:25:10;;;;;;;1.40;0.82;;;14.10;99.90;;;;;;5098157;27;20089;-73
2023/09/17 04:27:37;;;;;;;0.50;0.50;;;14.10;99.90;;;;;;5098914;27;20129;-72
2023/09/17 04:30:06;;;;;;;5.20;2.15;;;14.10;99.90;;;;;;5093917;27;20131;-72
2023/09/17 04:32:37;;;;;;;1.75;1.20;;;14.20;99.90;;;;;;5097856;27;20047;-73
2023/09/17 04:35:10;;;;;;;0.63;0.63;;;14.20;99.90;;;;;;5101198;27;20058;-72
2023/09/17 04:37:38;;;;;;;1.75;1.13;;;14.20;99.90;;;;;;5098898;27;20047;-73
2023/09/17 04:40:08;;;;;;;2.10;1.27;;;14.30;99.90;;;;;;5097818;27;20051;-72
2023/09/17 04:42:38;;;;;;;0.55;0.38;;;14.30;99.90;;;;;;5098303;27;20051;-72
2023/09/17 04:45:05;;;;;;;0.45;0.45;;;14.30;99.90;;;;;;5082767;28;20048;-73
2023/09/17 04:47:33;;;;;;;1.70;1.38;;;14.30;99.90;;;;;;5116468;27;20275;-73
2023/09/17 04:49:59;;;;;;;0.47;0.47;;;14.20;99.90;;;;;;5124203;27;20095;-73
2023/09/17 04:52:25;;;;;;;0.08;0.08;;;14.20;99.90;;;;;;5123794;27;20556;-73
2023/09/17 04:54:51;;;;;;;2.22;1.65;;;14.10;99.90;;;;;;5119479;27;20178;-72
2023/09/17 04:57:16;;;;;;;2.10;1.30;;;14.10;99.90;;;;;;5123942;27;20464;-73
2023/09/17 04:59:42;;;;;;;1.95;1.75;;;14.10;99.90;;;;;;5124207;28;20381;-73
2023/09/17 05:02:07;;;;;;;0.60;0.52;;;14.90;99.90;;;;;;5120257;28;20046;-73
2023/09/17 05:04:33;;;;;;;2.90;1.00;;;14.10;99.90;;;;;;5115172;28;20038;-73
2023/09/17 05:06:59;;;;;;;1.38;1.20;;;14.00;99.90;;;;;;5121411;28;20045;-73
2023/09/17 05:09:25;;;;;;;1.10;0.98;;;13.90;99.90;;;;;;5124217;27;20143;-73
2023/09/17 05:11:51;;;;;;;2.65;1.75;;;14.00;99.90;;;;;;5116680;27;20051;-73
2023/09/17 05:14:17;;;;;;;3.05;2.67;;;14.10;99.90;;;;;;5125299;27;20043;-73
2023/09/17 05:16:43;;;;;;;2.15;1.85;;;14.10;99.90;;;;;;5121553;27;20085;-73
2023/09/17 05:19:08;;;;;;;1.45;1.02;;;14.20;99.90;;;;;;5125276;27;20091;-73
2023/09/17 05:21:34;;;;;;;2.90;1.35;;;14.20;99.90;;;;;;5127253;27;20113;-73
2023/09/17 05:23:59;;;;;;;1.13;1.00;;;14.20;99.90;;;;;;5125948;27;20096;-73
2023/09/17 05:26:25;;;;;;;8.27;2.13;;;14.20;99.90;;;;;;5126004;27;20078;-73
2023/09/17 05:28:51;;;;;;;0.85;0.77;;;14.30;99.90;;;;;;5124026;27;20028;-73
2023/09/17 05:31:17;;;;;;;3.97;2.63;;;14.30;99.90;;;;;;5123662;27;20506;-73
2023/09/17 05:33:43;;;;;;;0.68;0.68;;;14.30;99.90;;;;;;5114378;27;20088;-72
2023/09/17 05:36:09;;;;;;;0.65;0.57;;;14.20;99.90;;;;;;5124580;27;20122;-73
2023/09/17 05:38:35;;;;;;;2.17;1.35;;;14.30;99.90;;;;;;5126355;27;20075;-73
2023/09/17 05:41:01;;;;;;;1.20;1.08;;;14.30;99.90;;;;;;5126928;27;20031;-73
2023/09/17 05:43:27;;;;;;;0.52;0.52;;;14.40;99.90;;;;;;5120496;27;20040;-73
2023/09/17 05:45:56;;;;;;;1.00;0.90;;;14.30;99.90;;;;;;5126911;27;20137;-73
2023/09/17 05:48:23;;;;;;;2.20;1.75;;;14.30;99.90;;;;;;5126911;27;20058;-73
2023/09/17 05:50:50;;;;;;;1.95;1.35;;;14.40;99.90;;;;;;5128063;27;20058;-73
2023/09/17 05:53:16;;;;;;;3.55;2.05;;;14.50;99.90;;;;;;5121024;27;20481;-73
2023/09/17 05:55:42;;;;;;;1.23;1.05;;;14.60;99.90;;;;;;5121610;27;20131;-73
2023/09/17 05:58:08;;;;;;;1.27;1.00;;;14.60;99.90;;;;;;5114315;27;20047;-72
2023/09/17 06:00:33;;;;;;;3.05;1.70;;;14.60;99.90;;;;;;5123698;27;20062;-72
2023/09/17 06:02:59;;;;;;;2.08;1.45;;;14.70;99.90;;;;;;5125995;27;20043;-72
2023/09/17 06:05:25;;;;;;;1.75;1.20;;;14.70;99.90;;;;;;5120266;27;20038;-73
2023/09/17 06:07:50;;;;;;;1.20;1.00;;;14.70;99.90;;;;;;5123707;27;20046;-73
2023/09/17 06:10:16;;;;;;;2.88;1.60;;;14.80;99.90;;;;;;5123850;27;20039;-72
2023/09/17 06:12:42;;;;;;;4.68;2.30;;;14.80;99.90;;;;;;5117490;27;20042;-73
2023/09/17 06:15:08;;;;;;;3.05;0.60;;;14.80;99.90;;;;;;5125316;27;20043;-73
2023/09/17 06:17:33;;;;;;;1.65;1.05;;;14.90;99.90;;;;;;5120939;27;20042;-73
2023/09/17 06:19:59;;;;;;;2.92;2.05;;;14.90;99.90;;;;;;5118422;27;20050;-73
2023/09/17 06:22:25;;;;;;;1.40;1.25;;;14.90;99.90;;;;;;5124560;27;20036;-73
2023/09/17 06:24:51;;;;;;;2.90;2.17;;;15.00;99.90;;;;;;5122983;27;20039;-73
2023/09/17 06:27:17;;;;;;;4.88;2.38;;;15.00;99.90;;;;;;5109921;27;20046;-73
2023/09/17 06:29:42;;;;;;;3.53;2.13;;;15.00;99.90;;;;;;5114901;27;20076;-73
2023/09/17 06:32:09;;;;;;;0.52;0.45;;;15.10;99.90;;;;;;5108486;27;20043;-73
2023/09/17 06:34:35;;;;;;;0.70;0.65;;;15.20;99.90;;;;;;5122584;27;20058;-73
2023/09/17 06:37:01;;;;;;;1.45;0.82;;;15.30;99.90;;;;;;5126947;27;20399;-73
2023/09/17 06:39:27;;;;;;;1.70;1.13;;;15.30;99.90;;;;;;5123271;27;20125;-73
2023/09/17 06:41:53;;;;;;;3.95;2.20;;;15.30;99.90;;;;;;5123627;27;20594;-73
2023/09/17 06:44:18;;;;;;;4.68;2.08;;;15.50;99.90;;;;;;5120605;27;20051;-73
2023/09/17 06:46:45;;;;;;;1.50;1.08;;;15.50;99.90;;;;;;5122968;27;20488;-73
2023/09/17 06:49:10;;;;;;;2.55;1.27;;;15.60;99.90;;;;;;5123843;27;20054;-73
2023/09/17 06:51:37;;;;;;;2.60;2.05;;;15.70;99.90;;;;;;5126748;27;20048;-73
2023/09/17 06:54:03;;;;;;;2.03;1.85;;;15.70;99.90;;;;;;5125238;27;20058;-73
2023/09/17 06:56:29;;;;;;;1.80;1.65;;;15.80;99.90;;;;;;5126830;27;20039;-73
2023/09/17 06:58:55;;;;;;;3.17;1.40;;;15.80;99.90;;;;;;5121673;27;20043;-73
2023/09/17 07:01:21;;;;;;;2.00;1.77;;;15.80;99.90;;;;;;5126407;27;20062;-73
2023/09/17 07:03:47;;;;;;;1.83;1.48;;;16.00;99.90;;;;;;5097830;27;20645;-73
2023/09/17 07:06:13;;;;;;;1.27;1.17;;;16.10;99.90;;;;;;5097183;27;20158;-73
2023/09/17 07:08:38;;;;;;;1.58;1.48;;;16.10;99.90;;;;;;5086511;27;20056;-73
2023/09/17 07:11:04;;;;;;;3.05;2.42;;;16.20;99.90;;;;;;5088519;27;20071;-73
2023/09/17 07:13:31;;;;;;;2.05;1.15;;;16.40;99.90;;;;;;5125479;27;20032;-73
2023/09/17 07:15:56;;;;;;;1.38;1.27;;;16.50;99.90;;;;;;5100580;27;20040;-75
2023/09/17 07:18:22;;;;;;;4.40;2.13;;;16.60;99.90;;;;;;5104007;27;20043;-74
2023/09/17 07:20:49;;;;;;;1.90;1.75;;;16.60;99.90;;;;;;5099348;27;20050;-73
2023/09/17 07:23:16;;;;;;;2.35;1.25;;;16.80;99.90;;;;;;5098244;27;20083;-73
2023/09/17 07:25:41;;;;;;;2.20;1.65;;;16.90;99.90;;;;;;5103046;27;20047;-73
2023/09/17 07:28:07;;;;;;;1.95;1.42;;;16.90;99.90;;;;;;5102228;27;20050;-73
2023/09/17 07:30:37;;;;;;;2.33;1.15;;;16.90;99.90;;;;;;5102584;27;20032;-72
2023/09/17 07:33:04;;;;;;;3.13;1.05;;;17.00;99.90;;;;;;5116541;27;20441;-73
2023/09/17 07:35:33;;;;;;;1.23;0.90;;;17.10;99.90;;;;;;5119910;27;20457;-73
2023/09/17 07:37:59;;;;;;;1.40;1.30;;;17.30;99.90;;;;;;5122277;27;20047;-73
2023/09/17 07:40:25;;;;;;;1.52;1.27;;;17.40;99.90;;;;;;5122880;27;20148;-73
2023/09/17 07:42:50;;;;;;;0.98;0.85;;;17.50;99.90;;;;;;5110633;27;20130;-73
2023/09/17 07:45:16;;;;;;;3.13;1.95;;;17.60;91.40;;;;;;5107023;27;20043;-73
2023/09/17 07:47:42;;;;;;;3.63;1.35;;;17.70;1.00;;;;;;5106066;27;20034;-73
2023/09/17 07:50:07;;;;;;;1.83;1.58;;;17.80;99.90;;;;;;5108374;27;20558;-73
2023/09/17 07:52:33;;;;;;;1.83;1.58;;;17.80;99.90;;;;;;5096418;27;20509;-72
2023/09/17 07:54:58;;;;;;;2.35;1.65;;;17.90;99.90;;;;;;5080620;27;20044;-72
2023/09/17 07:57:24;;;;;;;3.15;2.05;;;17.90;99.90;;;;;;5078107;27;20996;-73
2023/09/17 07:59:51;;;;;;;2.00;1.58;;;17.90;99.90;;;;;;5085694;27;20127;-73
2023/09/17 08:02:17;;;;;;;3.05;2.63;;;18.00;99.90;;;;;;5088693;27;20049;-73
2023/09/17 08:04:42;;;;;;;2.45;1.63;;;18.00;99.90;;;;;;5083773;27;20035;-73
2023/09/17 08:07:08;;;;;;;1.20;1.05;;;18.10;2.20;;;;;;5088438;27;20378;-73
2023/09/17 08:09:34;;;;;;;1.70;1.25;;;18.10;1.00;;;;;;5099981;27;20075;-73
2023/09/17 08:12:00;;;;;;;2.20;1.63;;;18.20;99.90;;;;;;5098744;27;20040;-73
2023/09/17 08:14:26;;;;;;;2.90;2.60;;;18.20;99.90;;;;;;5108429;27;20047;-73
2023/09/17 08:16:53;;;;;;;3.08;1.42;;;18.10;99.90;;;;;;5096164;27;20044;-73
2023/09/17 08:19:18;;;;;;;2.13;1.88;;;18.40;99.90;;;;;;5094411;27;20048;-73
2023/09/17 08:21:44;;;;;;;2.33;1.60;;;18.50;68.40;;;;;;5099561;27;20565;-73
2023/09/17 08:24:10;;;;;;;1.17;0.95;;;18.50;1.00;;;;;;5099552;27;20082;-73
2023/09/17 08:26:36;;;;;;;4.35;1.75;;;18.60;99.90;;;;;;5087937;27;20035;-73
2023/09/17 08:29:01;;;;;;;3.20;2.17;;;18.60;99.90;;;;;;5098882;27;20405;-73
2023/09/17 08:31:28;;;;;;;1.90;1.25;;;18.80;99.90;;;;;;5119450;27;20043;-73
2023/09/17 08:33:54;;;;;;;2.13;1.65;;;18.80;1.00;;;;;;5119442;27;20067;-73
2023/09/17 08:36:23;;;;;;;1.30;1.15;;;18.90;99.90;;;;;;5118850;27;20082;-73
2023/09/17 08:38:50;;;;;;;4.18;2.08;;;19.00;99.90;;;;;;5113679;27;20039;-73
2023/09/17 08:41:18;;;;;;;3.47;1.55;;;19.00;99.90;;;;;;5118392;27;20035;-73
2023/09/17 08:43:45;;;;;;;2.17;1.85;;;19.10;99.90;;;;;;5120916;27;20101;-74
2023/09/17 08:46:11;;;;;;;1.77;1.42;;;19.10;99.90;;;;;;5120776;27;20051;-73
2023/09/17 08:48:37;;;;;;;0.82;0.80;;;19.10;11.40;;;;;;5105407;27;20160;-73
2023/09/17 08:51:04;;;;;;;3.85;2.95;;;19.10;99.90;;;;;;5101628;28;20044;-73
2023/09/17 08:53:36;;;;;;;4.50;2.28;;;19.10;1.00;;;;;;5118461;27;20096;-73
2023/09/17 08:56:03;;;;;;;1.35;1.25;;;19.10;99.90;;;;;;5121899;27;20123;-73
2023/09/17 08:58:38;;;;;;;2.00;1.58;;;19.10;99.90;;;;;;5121249;27;20620;-73
2023/09/17 09:01:06;;;;;;;2.92;1.75;;;19.10;1.00;;;;;;5119415;27;20035;-73
2023/09/17 09:03:35;;;;;;;1.88;1.48;;;19.10;54.10;;;;;;5118518;28;20039;-74
2023/09/17 09:06:03;;;;;;;3.03;1.77;;;19.20;99.90;;;;;;5120087;28;20570;-74
2023/09/17 09:08:31;;;;;;;2.42;1.45;;;19.20;99.90;;;;;;5119731;27;20039;-74
2023/09/17 09:10:57;;;;;;;2.50;1.58;;;19.20;99.90;;;;;;5109889;27;20040;-74
2023/09/17 09:13:23;;;;;;;2.97;1.95;;;19.30;99.90;;;;;;5112434;27;20207;-73
2023/09/17 09:15:49;;;;;;;3.42;1.27;;;19.40;99.90;;;;;;5121525;27;20067;-73
2023/09/17 09:18:15;;;;;;;5.43;1.65;;;19.60;55.20;;;;;;5109637;27;20074;-73
2023/09/17 09:20:42;;;;;;;0.95;0.80;;;19.70;99.90;;;;;;5105768;28;20040;-73
2023/09/17 09:23:07;;;;;;;3.63;1.60;;;19.70;1.00;;;;;;5104622;28;20044;-73
2023/09/17 09:25:34;;;;;;;5.15;1.88;;;19.70;1.00;;;;;;5105707;28;20035;-73
2023/09/17 09:28:01;;;;;;;2.42;1.63;;;19.70;99.90;;;;;;5099823;28;20517;-73
2023/09/17 09:30:27;;;;;;;0.70;0.70;;;19.70;99.90;;;;;;5102824;28;20046;-73
2023/09/17 09:32:52;;;;;;;1.65;1.23;;;19.80;99.90;;;;;;5105336;28;20135;-73
2023/09/17 09:35:19;;;;;;;0.90;0.82;;;20.00;99.90;;;;;;5105479;28;20122;-73
2023/09/17 09:37:45;;;;;;;1.50;1.13;;;20.00;1.00;;;;;;5092387;28;20084;-73
2023/09/17 09:40:14;;;;;;;2.80;1.17;;;20.00;99.90;;;;;;5081747;28;20500;-72
2023/09/17 09:42:39;;;;;;;3.28;0.93;;;20.00;99.90;;;;;;5084187;28;20039;-73
2023/09/17 09:45:11;;;;;;;0.73;0.73;;;20.00;1.00;;;;;;5082262;28;20084;-73
2023/09/17 09:47:37;;;;;;;1.35;0.82;;;20.10;1.00;;;;;;5108941;28;20054;-73
2023/09/17 09:50:03;;;;;;;2.97;1.73;;;20.20;99.90;;;;;;5120618;27;20095;-73
2023/09/17 09:52:29;;;;;;;2.58;1.55;;;20.30;99.90;;;;;;5120739;28;20180;-73
2023/09/17 09:54:54;;;;;;;0.98;0.90;;;20.40;99.90;;;;;;5121592;28;20704;-72
2023/09/17 09:57:20;;;;;;;2.60;1.17;;;20.50;99.90;;;;;;5120692;27;20483;-73
2023/09/17 09:59:50;;;;;;;2.83;1.45;;;20.60;99.90;;;;;;5109104;27;20047;-73
2023/09/17 10:02:20;;;;;;;2.08;1.27;;;20.50;99.90;;;;;;5106794;27;20039;-73
2023/09/17 10:04:46;;;;;;;3.90;1.83;;;20.50;99.90;;;;;;5087573;27;20055;-72
2023/09/17 10:07:14;;;;;;;0.55;0.55;;;20.50;99.90;;;;;;5091952;27;20382;-73
2023/09/17 10:09:41;;;;;;;0.65;0.57;;;20.40;99.90;;;;;;5091312;27;20071;-72
2023/09/17 10:12:07;;;;;;;1.98;1.52;;;20.40;99.90;;;;;;5084792;27;20090;-73
2023/09/17 10:14:37;;;;;;;2.13;1.55;;;20.50;99.90;;;;;;5085888;27;20138;-73
2023/09/17 10:17:05;;;;;;;1.52;1.00;;;20.70;99.90;;;;;;5089517;27;20036;-73
2023/09/17 10:19:34;;;;;;;1.13;0.88;;;20.90;99.90;;;;;;5081518;27;20118;-73
2023/09/17 10:22:03;;;;;;;2.30;1.35;;;21.10;99.90;;;;;;5097812;27;20043;-73
2023/09/17 10:24:30;;;;;;;1.95;0.98;;;21.10;99.90;;;;;;5081960;27;20050;-72
2023/09/17 10:26:58;;;;;;;1.63;1.02;;;21.00;99.90;;;;;;5120380;27;20035;-73
2023/09/17 10:29:25;;;;;;;1.27;1.15;;;20.80;99.90;;;;;;5114310;27;20043;-73
2023/09/17 10:31:51;;;;;;;1.80;0.50;;;20.70;99.90;;;;;;5098692;27;20067;-73
2023/09/17 10:34:18;;;;;;;1.65;0.68;;;20.70;1.00;;;;;;5097938;27;20044;-73
2023/09/17 10:36:47;;;;;;;1.52;1.40;;;20.80;99.90;;;;;;5086059;27;20111;-73
2023/09/17 10:39:14;;;;;;;2.05;1.75;;;20.50;99.90;;;;;;5083870;27;20043;-73
2023/09/17 10:41:40;;;;;;;2.25;0.90;;;20.30;99.90;;;;;;5088203;27;20032;-73
2023/09/17 10:44:07;;;;;;;1.42;1.33;;;20.50;99.90;;;;;;5094608;27;20471;-73
2023/09/17 10:46:36;;;;;;;1.15;0.88;;;20.40;99.90;;;;;;5083584;27;20044;-74
2023/09/17 10:49:02;;;;;;;2.45;1.45;;;20.30;98.70;;;;;;5096534;27;20488;-73
2023/09/17 10:51:28;;;;;;;1.10;0.98;;;20.20;99.90;;;;;;5102305;27;20160;-73
2023/09/17 10:53:54;;;;;;;2.50;1.58;;;20.10;99.90;;;;;;5124551;27;20075;-73
2023/09/17 10:56:21;;;;;;;2.28;1.02;;;20.10;99.90;;;;;;5126325;27;20119;-73
2023/09/17 10:58:50;;;;;;;1.50;1.08;;;20.20;99.90;;;;;;5123327;27;20043;-73
2023/09/17 11:01:27;;;;;;;1.17;1.08;;;20.20;41.70;;;;;;5121893;27;20071;-74
2023/09/17 11:04:01;;;;;;;1.38;1.27;;;20.80;99.90;;;;;;5122175;27;20169;-73
2023/09/17 11:06:29;;;;;;;0.20;0.20;;;21.60;99.90;;;;;;5124891;27;20130;-73
2023/09/17 11:08:56;;;;;;;2.92;1.85;;;22.70;1.00;;;;;;5124034;27;20039;-73
2023/09/17 11:11:28;;;;;;;1.30;1.10;;;23.20;1.00;;;;;;5121396;27;20096;-74
2023/09/17 11:13:54;;;;;;;1.42;1.10;;;23.40;99.90;;;;;;5117781;27;20047;-74
2023/09/17 11:16:24;;;;;;;5.57;1.58;;;23.40;99.90;;;;;;5126398;27;20042;-73
2023/09/17 11:19:10;;;;;;;0.93;0.85;;;23.50;99.90;;;;;;5126812;27;20047;-73
2023/09/17 11:21:37;;;;;;;1.17;1.08;;;23.40;99.90;;;;;;5115304;27;20036;-73
2023/09/17 11:24:05;;;;;;;2.28;1.35;;;23.30;99.90;;;;;;5123241;27;20454;-73
2023/09/17 11:26:33;;;;;;;1.23;0.98;;;23.20;99.90;;;;;;5126346;27;20046;-73
2023/09/17 11:28:59;;;;;;;1.33;0.60;;;23.00;75.80;;;;;;5126634;27;20046;-73
2023/09/17 11:31:28;;;;;;;1.38;1.00;;;22.70;99.90;;;;;;5124107;27;20043;-73
2023/09/17 11:33:55;;;;;;;1.48;0.98;;;22.30;22.90;;;;;;5115805;27;20438;-73
2023/09/17 11:36:21;;;;;;;1.20;0.70;;;22.00;99.80;;;;;;5123125;27;20369;-73
2023/09/17 11:38:50;;;;;;;8.88;1.75;;;21.60;84.60;;;;;;5125478;27;20039;-74
2023/09/17 11:41:20;;;;;;;3.28;1.42;;;21.70;99.90;;;;;;5126480;27;20046;-74
2023/09/17 11:43:48;;;;;;;0.98;0.80;;;21.70;34.50;;;;;;5120408;27;20054;-73
2023/09/17 11:46:15;;;;;;;2.83;1.42;;;22.00;99.90;;;;;;5106803;27;20047;-73
2023/09/17 11:48:43;;;;;;;1.30;0.75;;;22.40;1.00;;;;;;5082955;28;20470;-73
2023/09/17 11:51:26;;;;;;;2.92;1.15;;;22.90;99.90;;;;;;5091835;27;20039;-73
2023/09/17 11:53:59;;;;;;;1.45;0.93;;;23.50;99.90;;;;;;5099875;27;20043;-73
2023/09/17 11:56:27;;;;;;;0.50;0.50;;;24.10;97.70;;;;;;5093487;27;20950;-73
2023/09/17 11:59:08;;;;;;;1.67;0.95;;;25.00;46.60;;;;;;5100121;27;20129;-73
2023/09/17 12:01:47;;;;;;;0.75;0.75;;;25.70;90.80;;;;;;5113886;27;20481;-73
2023/09/17 12:04:13;;;;;;;2.88;1.10;;;26.10;1.00;;;;;;5109311;27;20051;-73
2023/09/17 12:06:50;;;;;;;2.65;1.23;;;26.50;1.00;;;;;;5121091;27;20088;-73
2023/09/17 12:11:55;;;;;;;1.20;1.02;;;26.90;1.00;;;;;;5122337;27;20051;-73
2023/09/17 12:14:21;;;;;;;0.30;0.28;;;26.50;1.00;;;;;;5114245;27;20130;-73
2023/09/17 12:16:48;;;;;;;2.22;0.95;;;26.40;1.00;;;;;;5124897;27;20042;-74
2023/09/17 12:19:14;;;;;;;0.43;0.40;;;26.20;1.00;;;;;;5124129;27;20568;-73
2023/09/17 12:21:41;;;;;;;1.25;0.95;;;25.80;1.00;;;;;;5121586;27;20039;-74
2023/09/17 12:24:17;;;;;;;1.48;1.20;;;26.00;1.00;;;;;;5121407;27;20029;-74
2023/09/17 12:26:57;;;;;;;0.47;0.40;;;26.30;1.00;;;;;;5115148;27;20059;-73
2023/09/17 12:29:22;;;;;;;0.80;0.65;;;26.70;1.00;;;;;;5123956;27;20108;-74
2023/09/17 12:31:49;;;;;;;0.65;0.40;;;26.90;1.00;;;;;;5125636;27;20031;-73
2023/09/17 12:34:15;;;;;;;2.65;1.23;;;26.60;1.00;;;;;;5120435;27;20032;-73
2023/09/17 12:36:42;;;;;;;3.30;1.10;;;26.50;1.00;;;;;;5123875;27;20035;-73
2023/09/17 12:39:08;;;;;;;1.70;0.73;;;25.80;99.90;;;;;;5125522;27;20126;-73
2023/09/17 12:41:33;;;;;;;1.33;1.00;;;25.70;99.90;;;;;;5124004;27;20138;-73
2023/09/17 12:43:59;;;;;;;1.17;0.85;;;25.40;99.90;;;;;;5110160;27;20132;-73
2023/09/17 12:46:25;;;;;;;0.52;0.43;;;25.50;99.90;;;;;;5125232;27;20476;-73
2023/09/17 12:48:51;;;;;;;2.38;1.33;;;25.70;99.90;;;;;;5122491;27;20046;-73